sensor_id;sensor_type;location;lat;lon;timestamp;P1;durP1;ratioP1;P2;durP2;ratioP2
28266;SDS011;15525;45.568;5.448;2023-05-14T00:01:45;23.20;;;14.85;;
28266;SDS011;15525;45.568;5.448;2023-05-14T00:04:10;20.00;;;13.75;;
28266;SDS011;15525;45.568;5.448;2023-05-14T00:06:36;22.38;;;13.77;;
28266;SDS011;15525;45.568;5.448;2023-05-14T00:09:01;20.38;;;13.95;;
28266;SDS011;15525;45.568;5.448;2023-05-14T00:11:28;23.02;;;14.07;;
28266;SDS011;15525;45.568;5.448;2023-05-14T00:13:53;24.50;;;15.40;;
28266;SDS011;15525;45.568;5.448;2023-05-14T00:16:19;23.27;;;15.02;;
28266;SDS011;15525;45.568;5.448;2023-05-14T00:18:44;19.70;;;13.52;;
28266;SDS011;15525;45.568;5.448;2023-05-14T00:21:10;25.33;;;15.05;;
28266;SDS011;15525;45.568;5.448;2023-05-14T00:23:35;19.73;;;12.98;;
28266;SDS011;15525;45.568;5.448;2023-05-14T00:26:01;20.20;;;13.77;;
28266;SDS011;15525;45.568;5.448;2023-05-14T00:28:26;18.67;;;12.90;;
28266;SDS011;15525;45.568;5.448;2023-05-14T00:30:52;22.80;;;14.90;;
28266;SDS011;15525;45.568;5.448;2023-05-14T00:33:17;22.92;;;14.25;;
28266;SDS011;15525;45.568;5.448;2023-05-14T00:35:43;23.60;;;14.27;;
28266;SDS011;15525;45.568;5.448;2023-05-14T00:38:08;23.17;;;14.90;;
28266;SDS011;15525;45.568;5.448;2023-05-14T00:40:34;25.75;;;14.88;;
28266;SDS011;15525;45.568;5.448;2023-05-14T00:42:59;23.08;;;14.73;;
28266;SDS011;15525;45.568;5.448;2023-05-14T00:45:25;22.40;;;14.48;;
28266;SDS011;15525;45.568;5.448;2023-05-14T00:47:51;17.50;;;12.20;;
28266;SDS011;15525;45.568;5.448;2023-05-14T00:50:17;21.45;;;14.10;;
28266;SDS011;15525;45.568;5.448;2023-05-14T00:52:43;24.30;;;15.00;;
28266;SDS011;15525;45.568;5.448;2023-05-14T00:55:09;19.35;;;13.55;;
28266;SDS011;15525;45.568;5.448;2023-05-14T00:57:40;21.05;;;13.52;;
28266;SDS011;15525;45.568;5.448;2023-05-14T01:00:07;18.60;;;12.90;;
28266;SDS011;15525;45.568;5.448;2023-05-14T01:02:33;18.13;;;12.02;;
28266;SDS011;15525;45.568;5.448;2023-05-14T01:04:58;20.58;;;11.55;;
28266;SDS011;15525;45.568;5.448;2023-05-14T01:10:16;18.10;;;12.13;;
28266;SDS011;15525;45.568;5.448;2023-05-14T01:13:03;20.70;;;11.80;;
28266;SDS011;15525;45.568;5.448;2023-05-14T01:15:36;17.02;;;11.30;;
28266;SDS011;15525;45.568;5.448;2023-05-14T01:18:07;17.58;;;11.70;;
28266;SDS011;15525;45.568;5.448;2023-05-14T01:20:35;18.70;;;12.40;;
28266;SDS011;15525;45.568;5.448;2023-05-14T01:23:01;19.90;;;12.73;;
28266;SDS011;15525;45.568;5.448;2023-05-14T01:25:27;20.35;;;12.38;;
28266;SDS011;15525;45.568;5.448;2023-05-14T01:27:58;19.35;;;12.63;;
28266;SDS011;15525;45.568;5.448;2023-05-14T01:30:31;19.65;;;13.38;;
28266;SDS011;15525;45.568;5.448;2023-05-14T01:33:01;21.30;;;13.18;;
28266;SDS011;15525;45.568;5.448;2023-05-14T01:35:30;19.33;;;12.38;;
28266;SDS011;15525;45.568;5.448;2023-05-14T01:37:58;23.23;;;13.27;;
28266;SDS011;15525;45.568;5.448;2023-05-14T01:40:25;18.42;;;12.13;;
28266;SDS011;15525;45.568;5.448;2023-05-14T01:42:52;19.85;;;13.05;;
28266;SDS011;15525;45.568;5.448;2023-05-14T01:45:19;19.63;;;12.63;;
28266;SDS011;15525;45.568;5.448;2023-05-14T01:47:45;23.67;;;12.82;;
28266;SDS011;15525;45.568;5.448;2023-05-14T01:50:11;18.92;;;12.70;;
28266;SDS011;15525;45.568;5.448;2023-05-14T01:52:36;19.48;;;13.35;;
28266;SDS011;15525;45.568;5.448;2023-05-14T01:55:02;20.40;;;13.75;;
28266;SDS011;15525;45.568;5.448;2023-05-14T01:57:29;19.20;;;12.60;;
28266;SDS011;15525;45.568;5.448;2023-05-14T01:59:54;20.50;;;12.98;;
28266;SDS011;15525;45.568;5.448;2023-05-14T02:02:20;19.45;;;12.13;;
28266;SDS011;15525;45.568;5.448;2023-05-14T02:04:45;16.10;;;11.05;;
28266;SDS011;15525;45.568;5.448;2023-05-14T02:07:11;18.63;;;12.73;;
28266;SDS011;15525;45.568;5.448;2023-05-14T02:09:36;18.98;;;12.05;;
28266;SDS011;15525;45.568;5.448;2023-05-14T02:12:02;17.90;;;12.27;;
28266;SDS011;15525;45.568;5.448;2023-05-14T02:14:27;19.35;;;13.63;;
28266;SDS011;15525;45.568;5.448;2023-05-14T02:16:53;17.08;;;11.95;;
28266;SDS011;15525;45.568;5.448;2023-05-14T02:19:18;19.27;;;12.70;;
28266;SDS011;15525;45.568;5.448;2023-05-14T02:21:43;20.60;;;13.15;;
28266;SDS011;15525;45.568;5.448;2023-05-14T02:24:09;18.80;;;12.73;;
28266;SDS011;15525;45.568;5.448;2023-05-14T02:26:34;22.70;;;13.43;;
28266;SDS011;15525;45.568;5.448;2023-05-14T02:29:00;22.85;;;13.13;;
28266;SDS011;15525;45.568;5.448;2023-05-14T02:31:25;21.25;;;13.55;;
28266;SDS011;15525;45.568;5.448;2023-05-14T02:33:50;18.58;;;12.32;;
28266;SDS011;15525;45.568;5.448;2023-05-14T02:36:16;17.42;;;11.85;;
28266;SDS011;15525;45.568;5.448;2023-05-14T02:38:41;18.20;;;11.43;;
28266;SDS011;15525;45.568;5.448;2023-05-14T02:41:07;17.88;;;11.73;;
28266;SDS011;15525;45.568;5.448;2023-05-14T02:43:32;18.23;;;12.73;;
28266;SDS011;15525;45.568;5.448;2023-05-14T02:45:57;19.10;;;12.88;;
28266;SDS011;15525;45.568;5.448;2023-05-14T02:48:23;20.35;;;12.63;;
28266;SDS011;15525;45.568;5.448;2023-05-14T02:50:48;18.42;;;12.02;;
28266;SDS011;15525;45.568;5.448;2023-05-14T02:53:16;17.75;;;11.85;;
28266;SDS011;15525;45.568;5.448;2023-05-14T02:55:41;18.33;;;11.63;;
28266;SDS011;15525;45.568;5.448;2023-05-14T02:58:06;19.77;;;13.10;;
28266;SDS011;15525;45.568;5.448;2023-05-14T03:00:32;19.20;;;12.25;;
28266;SDS011;15525;45.568;5.448;2023-05-14T03:02:59;18.40;;;12.65;;
28266;SDS011;15525;45.568;5.448;2023-05-14T03:05:25;20.88;;;13.00;;
28266;SDS011;15525;45.568;5.448;2023-05-14T03:07:50;19.88;;;12.73;;
28266;SDS011;15525;45.568;5.448;2023-05-14T03:10:17;21.33;;;13.23;;
28266;SDS011;15525;45.568;5.448;2023-05-14T03:12:43;19.17;;;13.15;;
28266;SDS011;15525;45.568;5.448;2023-05-14T03:15:11;21.90;;;13.52;;
28266;SDS011;15525;45.568;5.448;2023-05-14T03:17:37;21.10;;;12.50;;
28266;SDS011;15525;45.568;5.448;2023-05-14T03:20:02;22.50;;;13.63;;
28266;SDS011;15525;45.568;5.448;2023-05-14T03:22:28;20.73;;;13.80;;
28266;SDS011;15525;45.568;5.448;2023-05-14T03:24:53;22.25;;;13.52;;
28266;SDS011;15525;45.568;5.448;2023-05-14T03:27:19;20.17;;;13.27;;
28266;SDS011;15525;45.568;5.448;2023-05-14T03:29:44;20.10;;;13.40;;
28266;SDS011;15525;45.568;5.448;2023-05-14T03:32:10;22.83;;;13.27;;
28266;SDS011;15525;45.568;5.448;2023-05-14T03:34:35;25.20;;;14.13;;
28266;SDS011;15525;45.568;5.448;2023-05-14T03:37:01;21.75;;;13.52;;
28266;SDS011;15525;45.568;5.448;2023-05-14T03:39:26;21.60;;;14.35;;
28266;SDS011;15525;45.568;5.448;2023-05-14T03:41:52;23.70;;;14.48;;
28266;SDS011;15525;45.568;5.448;2023-05-14T03:44:17;25.25;;;14.70;;
28266;SDS011;15525;45.568;5.448;2023-05-14T03:46:43;22.83;;;13.40;;
28266;SDS011;15525;45.568;5.448;2023-05-14T03:49:08;22.50;;;13.85;;
28266;SDS011;15525;45.568;5.448;2023-05-14T03:51:33;21.42;;;13.50;;
28266;SDS011;15525;45.568;5.448;2023-05-14T03:53:59;22.75;;;14.35;;
28266;SDS011;15525;45.568;5.448;2023-05-14T03:56:25;21.73;;;13.52;;
28266;SDS011;15525;45.568;5.448;2023-05-14T03:58:51;22.42;;;13.82;;
28266;SDS011;15525;45.568;5.448;2023-05-14T04:01:16;20.05;;;13.65;;
28266;SDS011;15525;45.568;5.448;2023-05-14T04:03:42;22.42;;;13.45;;
28266;SDS011;15525;45.568;5.448;2023-05-14T04:06:07;22.00;;;13.73;;
28266;SDS011;15525;45.568;5.448;2023-05-14T04:08:33;19.92;;;13.18;;
28266;SDS011;15525;45.568;5.448;2023-05-14T04:10:58;21.73;;;14.13;;
28266;SDS011;15525;45.568;5.448;2023-05-14T04:13:23;19.85;;;13.02;;
28266;SDS011;15525;45.568;5.448;2023-05-14T04:15:49;20.15;;;12.40;;
28266;SDS011;15525;45.568;5.448;2023-05-14T04:18:14;21.75;;;13.40;;
28266;SDS011;15525;45.568;5.448;2023-05-14T04:20:41;21.85;;;12.90;;
28266;SDS011;15525;45.568;5.448;2023-05-14T04:23:06;20.63;;;12.07;;
28266;SDS011;15525;45.568;5.448;2023-05-14T04:25:32;18.80;;;11.15;;
28266;SDS011;15525;45.568;5.448;2023-05-14T04:27:57;18.35;;;11.88;;
28266;SDS011;15525;45.568;5.448;2023-05-14T04:30:23;17.10;;;11.45;;
28266;SDS011;15525;45.568;5.448;2023-05-14T04:32:48;19.65;;;12.07;;
28266;SDS011;15525;45.568;5.448;2023-05-14T04:35:14;20.73;;;11.52;;
28266;SDS011;15525;45.568;5.448;2023-05-14T04:37:39;16.95;;;11.02;;
28266;SDS011;15525;45.568;5.448;2023-05-14T04:40:05;18.52;;;11.70;;
28266;SDS011;15525;45.568;5.448;2023-05-14T04:42:32;18.13;;;11.63;;
28266;SDS011;15525;45.568;5.448;2023-05-14T04:44:57;19.92;;;12.02;;
28266;SDS011;15525;45.568;5.448;2023-05-14T04:47:23;22.00;;;12.63;;
28266;SDS011;15525;45.568;5.448;2023-05-14T04:49:48;20.33;;;12.48;;
28266;SDS011;15525;45.568;5.448;2023-05-14T04:52:14;21.23;;;12.68;;
28266;SDS011;15525;45.568;5.448;2023-05-14T04:54:39;18.58;;;12.13;;
28266;SDS011;15525;45.568;5.448;2023-05-14T04:57:05;18.10;;;11.57;;
28266;SDS011;15525;45.568;5.448;2023-05-14T04:59:31;17.75;;;11.88;;
28266;SDS011;15525;45.568;5.448;2023-05-14T05:01:56;20.88;;;13.13;;
28266;SDS011;15525;45.568;5.448;2023-05-14T05:04:22;20.23;;;12.25;;
28266;SDS011;15525;45.568;5.448;2023-05-14T05:06:48;19.73;;;12.38;;
28266;SDS011;15525;45.568;5.448;2023-05-14T05:09:14;19.30;;;12.60;;
28266;SDS011;15525;45.568;5.448;2023-05-14T05:11:41;20.20;;;12.82;;
28266;SDS011;15525;45.568;5.448;2023-05-14T05:14:06;19.40;;;12.30;;
28266;SDS011;15525;45.568;5.448;2023-05-14T05:16:32;20.35;;;13.18;;
28266;SDS011;15525;45.568;5.448;2023-05-14T05:18:57;20.50;;;12.60;;
28266;SDS011;15525;45.568;5.448;2023-05-14T05:21:22;21.98;;;12.77;;
28266;SDS011;15525;45.568;5.448;2023-05-14T05:23:48;20.10;;;12.98;;
28266;SDS011;15525;45.568;5.448;2023-05-14T05:26:13;19.13;;;12.52;;
28266;SDS011;15525;45.568;5.448;2023-05-14T05:28:39;19.30;;;12.65;;
28266;SDS011;15525;45.568;5.448;2023-05-14T05:31:04;20.50;;;12.52;;
28266;SDS011;15525;45.568;5.448;2023-05-14T05:33:30;19.60;;;12.68;;
28266;SDS011;15525;45.568;5.448;2023-05-14T05:35:55;22.20;;;11.95;;
28266;SDS011;15525;45.568;5.448;2023-05-14T05:38:20;18.13;;;11.57;;
28266;SDS011;15525;45.568;5.448;2023-05-14T05:40:46;20.83;;;12.57;;
28266;SDS011;15525;45.568;5.448;2023-05-14T05:43:13;20.05;;;12.65;;
28266;SDS011;15525;45.568;5.448;2023-05-14T05:45:39;19.55;;;11.52;;
28266;SDS011;15525;45.568;5.448;2023-05-14T05:48:05;20.08;;;12.25;;
28266;SDS011;15525;45.568;5.448;2023-05-14T05:50:30;19.48;;;12.15;;
28266;SDS011;15525;45.568;5.448;2023-05-14T05:52:56;22.40;;;13.38;;
28266;SDS011;15525;45.568;5.448;2023-05-14T05:55:23;21.15;;;13.77;;
28266;SDS011;15525;45.568;5.448;2023-05-14T05:57:49;23.75;;;14.77;;
28266;SDS011;15525;45.568;5.448;2023-05-14T06:00:14;22.92;;;13.98;;
28266;SDS011;15525;45.568;5.448;2023-05-14T06:02:41;23.98;;;13.77;;
28266;SDS011;15525;45.568;5.448;2023-05-14T06:05:07;28.27;;;15.60;;
28266;SDS011;15525;45.568;5.448;2023-05-14T06:07:33;29.02;;;15.20;;
28266;SDS011;15525;45.568;5.448;2023-05-14T06:09:59;25.73;;;15.43;;
28266;SDS011;15525;45.568;5.448;2023-05-14T06:12:25;28.55;;;15.55;;
28266;SDS011;15525;45.568;5.448;2023-05-14T06:14:50;32.53;;;16.75;;
28266;SDS011;15525;45.568;5.448;2023-05-14T06:17:16;29.25;;;16.13;;
28266;SDS011;15525;45.568;5.448;2023-05-14T06:19:42;29.90;;;15.45;;
28266;SDS011;15525;45.568;5.448;2023-05-14T06:22:07;25.35;;;14.82;;
28266;SDS011;15525;45.568;5.448;2023-05-14T06:24:32;28.08;;;15.48;;
28266;SDS011;15525;45.568;5.448;2023-05-14T06:26:58;27.30;;;14.45;;
28266;SDS011;15525;45.568;5.448;2023-05-14T06:29:24;30.77;;;15.77;;
28266;SDS011;15525;45.568;5.448;2023-05-14T06:31:49;30.45;;;15.60;;
28266;SDS011;15525;45.568;5.448;2023-05-14T06:34:15;28.10;;;16.45;;
28266;SDS011;15525;45.568;5.448;2023-05-14T06:36:40;27.38;;;15.13;;
28266;SDS011;15525;45.568;5.448;2023-05-14T06:39:05;29.27;;;15.80;;
28266;SDS011;15525;45.568;5.448;2023-05-14T06:41:31;32.83;;;16.65;;
28266;SDS011;15525;45.568;5.448;2023-05-14T06:43:56;29.27;;;16.30;;
28266;SDS011;15525;45.568;5.448;2023-05-14T06:46:22;26.40;;;15.45;;
28266;SDS011;15525;45.568;5.448;2023-05-14T06:48:47;28.55;;;16.33;;
28266;SDS011;15525;45.568;5.448;2023-05-14T06:51:13;27.48;;;15.63;;
28266;SDS011;15525;45.568;5.448;2023-05-14T06:53:39;31.95;;;15.85;;
28266;SDS011;15525;45.568;5.448;2023-05-14T06:56:04;26.60;;;15.57;;
28266;SDS011;15525;45.568;5.448;2023-05-14T06:58:30;30.13;;;16.88;;
28266;SDS011;15525;45.568;5.448;2023-05-14T07:00:57;26.70;;;15.38;;
28266;SDS011;15525;45.568;5.448;2023-05-14T07:03:22;29.55;;;17.00;;
28266;SDS011;15525;45.568;5.448;2023-05-14T07:05:48;30.48;;;16.67;;
28266;SDS011;15525;45.568;5.448;2023-05-14T07:08:13;30.30;;;17.25;;
28266;SDS011;15525;45.568;5.448;2023-05-14T07:10:39;34.85;;;17.92;;
28266;SDS011;15525;45.568;5.448;2023-05-14T07:13:04;31.20;;;18.05;;
28266;SDS011;15525;45.568;5.448;2023-05-14T07:15:30;29.50;;;17.00;;
28266;SDS011;15525;45.568;5.448;2023-05-14T07:17:55;33.72;;;17.13;;
28266;SDS011;15525;45.568;5.448;2023-05-14T07:20:21;33.95;;;18.17;;
28266;SDS011;15525;45.568;5.448;2023-05-14T07:22:48;36.80;;;18.63;;
28266;SDS011;15525;45.568;5.448;2023-05-14T07:25:14;36.60;;;18.98;;
28266;SDS011;15525;45.568;5.448;2023-05-14T07:27:39;32.90;;;17.17;;
28266;SDS011;15525;45.568;5.448;2023-05-14T07:30:05;26.98;;;14.23;;
28266;SDS011;15525;45.568;5.448;2023-05-14T07:32:31;26.48;;;14.02;;
28266;SDS011;15525;45.568;5.448;2023-05-14T07:34:57;28.20;;;14.95;;
28266;SDS011;15525;45.568;5.448;2023-05-14T07:37:22;32.10;;;15.38;;
28266;SDS011;15525;45.568;5.448;2023-05-14T07:39:50;27.23;;;14.13;;
28266;SDS011;15525;45.568;5.448;2023-05-14T07:42:18;22.98;;;12.13;;
28266;SDS011;15525;45.568;5.448;2023-05-14T07:44:43;18.85;;;10.60;;
28266;SDS011;15525;45.568;5.448;2023-05-14T07:47:09;21.10;;;10.82;;
28266;SDS011;15525;45.568;5.448;2023-05-14T07:49:35;20.30;;;11.10;;
28266;SDS011;15525;45.568;5.448;2023-05-14T07:52:01;13.20;;;7.88;;
28266;SDS011;15525;45.568;5.448;2023-05-14T07:54:26;14.63;;;8.52;;
28266;SDS011;15525;45.568;5.448;2023-05-14T07:56:52;16.10;;;9.13;;
28266;SDS011;15525;45.568;5.448;2023-05-14T07:59:17;11.43;;;6.75;;
28266;SDS011;15525;45.568;5.448;2023-05-14T08:01:43;10.55;;;6.03;;
28266;SDS011;15525;45.568;5.448;2023-05-14T08:04:08;11.02;;;6.40;;
28266;SDS011;15525;45.568;5.448;2023-05-14T08:06:35;12.77;;;7.03;;
28266;SDS011;15525;45.568;5.448;2023-05-14T08:09:01;11.73;;;6.90;;
28266;SDS011;15525;45.568;5.448;2023-05-14T08:11:29;10.70;;;5.95;;
28266;SDS011;15525;45.568;5.448;2023-05-14T08:13:55;9.10;;;5.90;;
28266;SDS011;15525;45.568;5.448;2023-05-14T08:16:20;10.25;;;6.45;;
28266;SDS011;15525;45.568;5.448;2023-05-14T08:18:46;13.88;;;7.55;;
28266;SDS011;15525;45.568;5.448;2023-05-14T08:21:11;14.30;;;8.57;;
28266;SDS011;15525;45.568;5.448;2023-05-14T08:23:37;12.90;;;7.32;;
28266;SDS011;15525;45.568;5.448;2023-05-14T08:26:02;14.25;;;8.43;;
28266;SDS011;15525;45.568;5.448;2023-05-14T08:28:27;14.73;;;8.60;;
28266;SDS011;15525;45.568;5.448;2023-05-14T08:30:53;13.82;;;8.23;;
28266;SDS011;15525;45.568;5.448;2023-05-14T08:33:18;13.60;;;8.20;;
28266;SDS011;15525;45.568;5.448;2023-05-14T08:35:44;13.40;;;8.68;;
28266;SDS011;15525;45.568;5.448;2023-05-14T08:38:09;13.68;;;8.57;;
28266;SDS011;15525;45.568;5.448;2023-05-14T08:40:35;12.98;;;8.25;;
28266;SDS011;15525;45.568;5.448;2023-05-14T08:43:01;12.70;;;8.55;;
28266;SDS011;15525;45.568;5.448;2023-05-14T08:45:28;12.40;;;8.38;;
28266;SDS011;15525;45.568;5.448;2023-05-14T08:47:57;14.50;;;9.20;;
28266;SDS011;15525;45.568;5.448;2023-05-14T08:50:25;13.88;;;8.32;;
28266;SDS011;15525;45.568;5.448;2023-05-14T08:52:51;13.93;;;8.82;;
28266;SDS011;15525;45.568;5.448;2023-05-14T08:55:17;14.63;;;9.73;;
28266;SDS011;15525;45.568;5.448;2023-05-14T08:57:43;14.38;;;9.35;;
28266;SDS011;15525;45.568;5.448;2023-05-14T09:00:10;14.63;;;9.20;;
28266;SDS011;15525;45.568;5.448;2023-05-14T09:02:36;18.67;;;10.27;;
28266;SDS011;15525;45.568;5.448;2023-05-14T09:05:04;15.65;;;10.40;;
28266;SDS011;15525;45.568;5.448;2023-05-14T09:07:31;14.75;;;9.88;;
28266;SDS011;15525;45.568;5.448;2023-05-14T09:09:57;16.02;;;10.70;;
28266;SDS011;15525;45.568;5.448;2023-05-14T09:12:23;19.65;;;11.73;;
28266;SDS011;15525;45.568;5.448;2023-05-14T09:14:49;18.83;;;11.60;;
28266;SDS011;15525;45.568;5.448;2023-05-14T09:17:15;20.42;;;12.80;;
28266;SDS011;15525;45.568;5.448;2023-05-14T09:19:42;21.70;;;12.95;;
28266;SDS011;15525;45.568;5.448;2023-05-14T09:22:11;23.92;;;14.20;;
28266;SDS011;15525;45.568;5.448;2023-05-14T09:24:38;23.75;;;14.07;;
28266;SDS011;15525;45.568;5.448;2023-05-14T09:27:04;22.08;;;13.82;;
28266;SDS011;15525;45.568;5.448;2023-05-14T09:29:31;21.67;;;14.15;;
28266;SDS011;15525;45.568;5.448;2023-05-14T09:31:57;19.73;;;12.95;;
28266;SDS011;15525;45.568;5.448;2023-05-14T09:34:28;19.52;;;13.55;;
28266;SDS011;15525;45.568;5.448;2023-05-14T09:37:04;19.65;;;12.88;;
28266;SDS011;15525;45.568;5.448;2023-05-14T09:39:31;19.58;;;12.65;;
28266;SDS011;15525;45.568;5.448;2023-05-14T09:41:57;18.02;;;11.80;;
28266;SDS011;15525;45.568;5.448;2023-05-14T09:44:23;19.40;;;12.40;;
28266;SDS011;15525;45.568;5.448;2023-05-14T09:46:49;18.38;;;12.85;;
28266;SDS011;15525;45.568;5.448;2023-05-14T09:49:15;19.40;;;13.18;;
28266;SDS011;15525;45.568;5.448;2023-05-14T09:51:41;19.20;;;13.63;;
28266;SDS011;15525;45.568;5.448;2023-05-14T09:54:06;20.15;;;13.65;;
28266;SDS011;15525;45.568;5.448;2023-05-14T09:56:33;19.20;;;13.20;;
28266;SDS011;15525;45.568;5.448;2023-05-14T09:58:59;21.35;;;13.68;;
28266;SDS011;15525;45.568;5.448;2023-05-14T10:01:25;22.67;;;15.23;;
28266;SDS011;15525;45.568;5.448;2023-05-14T10:03:52;22.38;;;15.25;;
28266;SDS011;15525;45.568;5.448;2023-05-14T10:06:20;15.52;;;11.07;;
28266;SDS011;15525;45.568;5.448;2023-05-14T10:08:47;14.68;;;11.00;;
28266;SDS011;15525;45.568;5.448;2023-05-14T10:11:18;16.95;;;12.05;;
28266;SDS011;15525;45.568;5.448;2023-05-14T10:14:11;15.18;;;11.77;;
28266;SDS011;15525;45.568;5.448;2023-05-14T10:16:53;17.20;;;12.55;;
28266;SDS011;15525;45.568;5.448;2023-05-14T10:19:22;17.95;;;12.57;;
28266;SDS011;15525;45.568;5.448;2023-05-14T10:21:55;15.38;;;10.43;;
28266;SDS011;15525;45.568;5.448;2023-05-14T10:24:21;16.92;;;10.48;;
28266;SDS011;15525;45.568;5.448;2023-05-14T10:26:48;15.80;;;11.15;;
28266;SDS011;15525;45.568;5.448;2023-05-14T10:29:13;17.90;;;12.57;;
28266;SDS011;15525;45.568;5.448;2023-05-14T10:31:46;18.00;;;12.23;;
28266;SDS011;15525;45.568;5.448;2023-05-14T10:37:03;16.98;;;12.15;;
28266;SDS011;15525;45.568;5.448;2023-05-14T10:42:23;18.92;;;12.88;;
28266;SDS011;15525;45.568;5.448;2023-05-14T10:47:16;19.02;;;13.50;;
28266;SDS011;15525;45.568;5.448;2023-05-14T10:49:43;18.15;;;12.80;;
28266;SDS011;15525;45.568;5.448;2023-05-14T10:52:14;17.25;;;12.55;;
28266;SDS011;15525;45.568;5.448;2023-05-14T10:54:44;17.15;;;12.52;;
28266;SDS011;15525;45.568;5.448;2023-05-14T10:57:13;17.40;;;13.10;;
28266;SDS011;15525;45.568;5.448;2023-05-14T10:59:41;20.05;;;13.32;;
28266;SDS011;15525;45.568;5.448;2023-05-14T11:02:17;21.40;;;13.20;;
28266;SDS011;15525;45.568;5.448;2023-05-14T11:04:58;18.92;;;13.57;;
28266;SDS011;15525;45.568;5.448;2023-05-14T11:10:00;20.58;;;14.13;;
28266;SDS011;15525;45.568;5.448;2023-05-14T11:12:30;21.10;;;14.48;;
28266;SDS011;15525;45.568;5.448;2023-05-14T11:14:56;20.27;;;14.68;;
28266;SDS011;15525;45.568;5.448;2023-05-14T11:17:24;20.63;;;14.55;;
28266;SDS011;15525;45.568;5.448;2023-05-14T11:19:50;24.30;;;14.75;;
28266;SDS011;15525;45.568;5.448;2023-05-14T11:22:16;22.38;;;15.23;;
28266;SDS011;15525;45.568;5.448;2023-05-14T11:24:41;23.92;;;16.50;;
28266;SDS011;15525;45.568;5.448;2023-05-14T11:27:07;21.85;;;15.68;;
28266;SDS011;15525;45.568;5.448;2023-05-14T11:29:34;25.25;;;17.35;;
28266;SDS011;15525;45.568;5.448;2023-05-14T11:32:01;23.25;;;15.65;;
28266;SDS011;15525;45.568;5.448;2023-05-14T11:34:28;20.73;;;14.30;;
28266;SDS011;15525;45.568;5.448;2023-05-14T11:36:54;19.88;;;13.25;;
28266;SDS011;15525;45.568;5.448;2023-05-14T11:39:19;23.20;;;15.63;;
28266;SDS011;15525;45.568;5.448;2023-05-14T11:41:45;21.23;;;15.63;;
28266;SDS011;15525;45.568;5.448;2023-05-14T11:44:10;24.70;;;16.65;;
28266;SDS011;15525;45.568;5.448;2023-05-14T11:46:36;25.23;;;18.60;;
28266;SDS011;15525;45.568;5.448;2023-05-14T11:49:05;21.50;;;15.30;;
28266;SDS011;15525;45.568;5.448;2023-05-14T11:51:31;23.92;;;12.73;;
28266;SDS011;15525;45.568;5.448;2023-05-14T11:53:56;16.88;;;12.32;;
28266;SDS011;15525;45.568;5.448;2023-05-14T11:56:25;15.40;;;12.00;;
28266;SDS011;15525;45.568;5.448;2023-05-14T11:58:56;16.40;;;11.80;;
28266;SDS011;15525;45.568;5.448;2023-05-14T12:01:22;14.80;;;11.65;;
28266;SDS011;15525;45.568;5.448;2023-05-14T12:03:48;15.50;;;11.77;;
28266;SDS011;15525;45.568;5.448;2023-05-14T12:06:14;16.73;;;12.23;;
28266;SDS011;15525;45.568;5.448;2023-05-14T12:08:39;18.10;;;13.23;;
28266;SDS011;15525;45.568;5.448;2023-05-14T12:11:05;18.27;;;13.10;;
28266;SDS011;15525;45.568;5.448;2023-05-14T12:13:33;21.77;;;14.85;;
28266;SDS011;15525;45.568;5.448;2023-05-14T12:16:00;19.20;;;14.27;;
28266;SDS011;15525;45.568;5.448;2023-05-14T12:18:27;19.40;;;14.23;;
28266;SDS011;15525;45.568;5.448;2023-05-14T12:20:53;19.55;;;14.63;;
28266;SDS011;15525;45.568;5.448;2023-05-14T12:23:25;20.75;;;14.63;;
28266;SDS011;15525;45.568;5.448;2023-05-14T12:25:51;19.90;;;14.20;;
28266;SDS011;15525;45.568;5.448;2023-05-14T12:28:17;20.20;;;14.02;;
28266;SDS011;15525;45.568;5.448;2023-05-14T12:30:44;20.45;;;12.93;;
28266;SDS011;15525;45.568;5.448;2023-05-14T12:33:10;17.42;;;13.18;;
28266;SDS011;15525;45.568;5.448;2023-05-14T12:35:35;17.88;;;13.63;;
28266;SDS011;15525;45.568;5.448;2023-05-14T12:38:01;15.02;;;12.20;;
28266;SDS011;15525;45.568;5.448;2023-05-14T12:40:27;18.40;;;12.63;;
28266;SDS011;15525;45.568;5.448;2023-05-14T12:42:53;15.88;;;11.82;;
28266;SDS011;15525;45.568;5.448;2023-05-14T12:45:19;16.20;;;11.75;;
28266;SDS011;15525;45.568;5.448;2023-05-14T12:47:45;12.18;;;10.38;;
28266;SDS011;15525;45.568;5.448;2023-05-14T12:50:10;13.85;;;10.07;;
28266;SDS011;15525;45.568;5.448;2023-05-14T12:52:36;13.05;;;9.95;;
28266;SDS011;15525;45.568;5.448;2023-05-14T12:55:01;12.82;;;10.20;;
28266;SDS011;15525;45.568;5.448;2023-05-14T12:57:27;12.95;;;10.30;;
28266;SDS011;15525;45.568;5.448;2023-05-14T12:59:54;14.52;;;10.90;;
28266;SDS011;15525;45.568;5.448;2023-05-14T13:02:19;14.88;;;10.90;;
28266;SDS011;15525;45.568;5.448;2023-05-14T13:04:45;14.35;;;10.73;;
28266;SDS011;15525;45.568;5.448;2023-05-14T13:07:11;15.02;;;11.07;;
28266;SDS011;15525;45.568;5.448;2023-05-14T13:09:37;15.88;;;12.20;;
28266;SDS011;15525;45.568;5.448;2023-05-14T13:12:02;17.45;;;11.68;;
28266;SDS011;15525;45.568;5.448;2023-05-14T13:14:28;15.95;;;11.65;;
28266;SDS011;15525;45.568;5.448;2023-05-14T13:16:53;15.35;;;11.82;;
28266;SDS011;15525;45.568;5.448;2023-05-14T13:19:19;13.80;;;10.52;;
28266;SDS011;15525;45.568;5.448;2023-05-14T13:21:44;14.02;;;10.80;;
28266;SDS011;15525;45.568;5.448;2023-05-14T13:24:10;10.32;;;8.18;;
28266;SDS011;15525;45.568;5.448;2023-05-14T13:26:36;7.25;;;5.63;;
28266;SDS011;15525;45.568;5.448;2023-05-14T13:29:01;5.03;;;4.53;;
28266;SDS011;15525;45.568;5.448;2023-05-14T13:31:27;5.85;;;4.60;;
28266;SDS011;15525;45.568;5.448;2023-05-14T13:33:53;4.95;;;4.45;;
28266;SDS011;15525;45.568;5.448;2023-05-14T13:36:18;6.25;;;4.93;;
28266;SDS011;15525;45.568;5.448;2023-05-14T13:38:43;7.55;;;6.55;;
28266;SDS011;15525;45.568;5.448;2023-05-14T13:41:12;6.35;;;5.75;;
28266;SDS011;15525;45.568;5.448;2023-05-14T13:43:37;18.70;;;12.93;;
28266;SDS011;15525;45.568;5.448;2023-05-14T13:46:03;8.07;;;6.32;;
28266;SDS011;15525;45.568;5.448;2023-05-14T13:48:30;5.90;;;3.70;;
28266;SDS011;15525;45.568;5.448;2023-05-14T13:50:56;4.47;;;3.95;;
28266;SDS011;15525;45.568;5.448;2023-05-14T13:53:22;4.47;;;3.40;;
28266;SDS011;15525;45.568;5.448;2023-05-14T13:55:48;5.32;;;4.00;;
28266;SDS011;15525;45.568;5.448;2023-05-14T13:58:14;6.30;;;4.43;;
28266;SDS011;15525;45.568;5.448;2023-05-14T14:00:40;7.60;;;4.60;;
28266;SDS011;15525;45.568;5.448;2023-05-14T14:03:06;6.70;;;4.25;;
28266;SDS011;15525;45.568;5.448;2023-05-14T14:05:32;6.00;;;4.07;;
28266;SDS011;15525;45.568;5.448;2023-05-14T14:07:59;5.30;;;4.60;;
28266;SDS011;15525;45.568;5.448;2023-05-14T14:10:24;7.07;;;5.15;;
28266;SDS011;15525;45.568;5.448;2023-05-14T14:12:50;6.07;;;4.63;;
28266;SDS011;15525;45.568;5.448;2023-05-14T14:15:16;5.93;;;4.88;;
28266;SDS011;15525;45.568;5.448;2023-05-14T14:17:41;6.30;;;5.07;;
28266;SDS011;15525;45.568;5.448;2023-05-14T14:20:07;6.10;;;5.25;;
28266;SDS011;15525;45.568;5.448;2023-05-14T14:22:33;9.90;;;6.15;;
28266;SDS011;15525;45.568;5.448;2023-05-14T14:24:59;7.13;;;5.53;;
28266;SDS011;15525;45.568;5.448;2023-05-14T14:27:25;8.75;;;5.70;;
28266;SDS011;15525;45.568;5.448;2023-05-14T14:29:51;6.50;;;5.07;;
28266;SDS011;15525;45.568;5.448;2023-05-14T14:32:16;5.53;;;4.18;;
28266;SDS011;15525;45.568;5.448;2023-05-14T14:34:42;6.28;;;4.30;;